Clayhatchee, Alabama
Current Conditions -  °F | °C
As of 7:58 AM on Sunday 25 Jan 2015 (Local Time) from KOZR Reporting Station
Clear Clear  
Wind Chill: 38°   Ceiling: Unl
Heat Index: 38°   Visibility: 10mi
Dew Point: 34°   Wind: 2mph
Humidity: 87%   Direction: 210°SSW
Pressure: 30.03"   Gusts: NA
Location:  31.2347°N, 85.7586°W
Report Text: KOZR 251358Z AUTO 21002KT 10SM CLR 03/01 A3003 RMK AO2 SLP173 T00320012
Loading
Personal Weather Stations






























Interactive Weather Map New forecast layout! Learn more

10-Day Weather Forecast

Advertisements
Track Severe Weather on mobile